createdAt,value
2023-11-15T00:01:50.902Z,99455.66
2023-11-15T00:04:54.268Z,99447.03
2023-11-15T00:07:57.098Z,99449.53
2023-11-15T00:11:00.140Z,99451.25
2023-11-15T00:14:04.818Z,99455.78
2023-11-15T00:17:08.354Z,99439.06
2023-11-15T00:20:14.612Z,99448.62
2023-11-15T00:23:17.814Z,99458.25
2023-11-15T00:26:21.067Z,99464.22
2023-11-15T00:29:26.180Z,99484.19
2023-11-15T00:32:30.125Z,99513.69
2023-11-15T00:35:34.737Z,99505.06
2023-11-15T00:38:37.734Z,99445.72
2023-11-15T00:41:41.903Z,99454.34
2023-11-15T00:44:44.829Z,99458.94
2023-11-15T00:47:48.486Z,99473.53
2023-11-15T00:50:51.616Z,99466.50
2023-11-15T00:53:54.531Z,99470.75
2023-11-15T00:56:57.453Z,99455.28
2023-11-15T01:00:00.809Z,99452.59
2023-11-15T01:03:04.165Z,99457.84
2023-11-15T01:06:07.889Z,99464.66
2023-11-15T01:09:11.525Z,99458.34
2023-11-15T01:12:14.659Z,99453.78
2023-11-15T01:15:17.831Z,99453.75
2023-11-15T01:18:23.942Z,99445.00
2023-11-15T01:21:26.856Z,99449.63
2023-11-15T01:24:29.750Z,99453.63
2023-11-15T01:27:33.274Z,99443.94
2023-11-15T01:30:36.238Z,99451.00
2023-11-15T01:33:42.909Z,99440.62
2023-11-15T01:36:47.509Z,99449.25
2023-11-15T01:39:52.010Z,99462.31
2023-11-15T01:42:55.111Z,99467.50
2023-11-15T01:45:58.411Z,99475.37
2023-11-15T01:49:01.376Z,99467.13
2023-11-15T01:52:07.744Z,99467.25
2023-11-15T01:55:14.006Z,99454.81
2023-11-15T01:58:17.510Z,99448.41
2023-11-15T02:01:22.000Z,99426.59
2023-11-15T02:04:25.188Z,99434.94
2023-11-15T02:07:27.876Z,99432.50
2023-11-15T02:10:31.836Z,99442.88
2023-11-15T02:13:34.738Z,99439.13
2023-11-15T02:16:39.431Z,99434.28
2023-11-15T02:19:42.146Z,99434.94
2023-11-15T02:22:48.267Z,99428.00
2023-11-15T02:25:52.333Z,99435.72
2023-11-15T02:28:56.017Z,99425.28
2023-11-15T02:31:58.607Z,99421.09
2023-11-15T02:35:01.783Z,99414.22
2023-11-15T02:38:06.703Z,99400.00
2023-11-15T02:41:10.605Z,99419.06
2023-11-15T02:44:13.127Z,99419.84
2023-11-15T02:47:16.288Z,99399.69
2023-11-15T02:50:19.099Z,99394.16
2023-11-15T02:53:22.419Z,99404.31
2023-11-15T02:56:25.642Z,99407.84
2023-11-15T02:59:28.871Z,99401.03
2023-11-15T03:02:31.538Z,99391.59
2023-11-15T03:05:34.794Z,99393.44
2023-11-15T03:08:37.857Z,99369.75
2023-11-15T03:11:41.296Z,99367.13
2023-11-15T03:14:44.004Z,99379.62
2023-11-15T03:17:47.178Z,99387.69
2023-11-15T03:20:50.819Z,99412.53
2023-11-15T03:23:54.118Z,99379.75
2023-11-15T03:26:57.005Z,99376.72
2023-11-15T03:30:01.115Z,99384.63
2023-11-15T03:33:04.021Z,99403.38
2023-11-15T03:36:07.458Z,99390.63
2023-11-15T03:39:10.619Z,99380.09
2023-11-15T03:42:13.806Z,99387.06
2023-11-15T03:45:16.440Z,99388.47
2023-11-15T03:48:19.692Z,99386.59
2023-11-15T03:51:23.240Z,99388.56
2023-11-15T03:54:26.321Z,99397.75
2023-11-15T03:57:28.947Z,99389.19
2023-11-15T04:00:32.605Z,99396.12
2023-11-15T04:03:35.888Z,99401.22
2023-11-15T04:06:39.325Z,99405.78
2023-11-15T04:09:43.000Z,99403.00
2023-11-15T04:12:47.993Z,99403.62
2023-11-15T04:15:52.351Z,99404.16
2023-11-15T04:18:55.345Z,99404.91
2023-11-15T04:22:08.780Z,99406.41
2023-11-15T04:25:16.706Z,99390.66
2023-11-15T04:28:20.985Z,99406.06
2023-11-15T04:31:25.346Z,99405.84
2023-11-15T04:34:28.273Z,99401.16
2023-11-15T04:37:31.092Z,99388.03
2023-11-15T04:40:33.969Z,99386.53
2023-11-15T04:43:36.807Z,99395.91
2023-11-15T04:46:39.776Z,99400.00
2023-11-15T04:49:42.820Z,99394.69
2023-11-15T04:52:45.699Z,99400.75
2023-11-15T04:55:48.595Z,99392.13
2023-11-15T04:58:53.598Z,99388.72
2023-11-15T05:01:56.839Z,99385.28
2023-11-15T05:05:00.305Z,99379.19
2023-11-15T05:08:04.616Z,99373.94
2023-11-15T05:11:07.516Z,99373.25
2023-11-15T05:14:10.424Z,99368.75
2023-11-15T05:17:13.627Z,99379.09
2023-11-15T05:20:16.462Z,99372.81
2023-11-15T05:23:19.353Z,99370.94
2023-11-15T05:26:22.316Z,99379.53
2023-11-15T05:29:25.691Z,99378.50
2023-11-15T05:32:28.523Z,99376.81
2023-11-15T05:35:31.496Z,99387.00
2023-11-15T05:38:34.646Z,99390.44
2023-11-15T05:41:37.662Z,99385.94
2023-11-15T05:44:40.937Z,99385.84
2023-11-15T05:47:44.362Z,99369.19
2023-11-15T05:50:47.405Z,99376.00
2023-11-15T05:53:50.277Z,99371.47
2023-11-15T05:56:53.297Z,99370.75
2023-11-15T05:59:56.272Z,99362.16
2023-11-15T06:02:59.313Z,99372.72
2023-11-15T06:06:03.219Z,99376.00
2023-11-15T06:09:06.256Z,99383.75
2023-11-15T06:12:09.315Z,99382.50
2023-11-15T06:15:12.763Z,99393.66
2023-11-15T06:18:17.449Z,99394.47
2023-11-15T06:21:21.956Z,99389.94
2023-11-15T06:24:25.314Z,99390.19
2023-11-15T06:27:28.980Z,99401.13
2023-11-15T06:30:32.288Z,99395.06
2023-11-15T06:33:35.450Z,99399.25
2023-11-15T06:36:42.821Z,99401.13
2023-11-15T06:39:49.578Z,99409.44
2023-11-15T06:42:52.613Z,99406.09
2023-11-15T06:45:57.045Z,99406.16
2023-11-15T06:49:00.026Z,99414.09
2023-11-15T06:52:03.354Z,99410.94
2023-11-15T06:55:11.296Z,99415.28
2023-11-15T06:58:20.852Z,99425.91
2023-11-15T07:01:24.136Z,99414.03
2023-11-15T07:04:28.041Z,99423.88
2023-11-15T07:07:31.470Z,99423.41
2023-11-15T07:10:34.337Z,99409.19
2023-11-15T07:13:37.182Z,99412.81
2023-11-15T07:16:48.681Z,99417.97
2023-11-15T07:19:51.758Z,99429.47
2023-11-15T07:22:54.680Z,99435.56
2023-11-15T07:25:57.747Z,99431.28
2023-11-15T07:29:01.717Z,99438.47
2023-11-15T07:32:05.757Z,99434.28
2023-11-15T07:35:11.890Z,99458.72
2023-11-15T07:38:15.482Z,99450.41
2023-11-15T07:41:19.721Z,99462.94
2023-11-15T07:44:22.680Z,99453.72
2023-11-15T07:47:26.659Z,99447.91
2023-11-15T07:50:29.941Z,99452.41
2023-11-15T07:53:33.666Z,99470.09
2023-11-15T07:56:38.962Z,99471.81
2023-11-15T07:59:42.768Z,99480.34
2023-11-15T08:02:45.913Z,99484.34
2023-11-15T08:05:49.322Z,99471.34
2023-11-15T08:08:52.157Z,99488.06
2023-11-15T08:11:57.263Z,99482.09
2023-11-15T08:15:01.194Z,99489.03
2023-11-15T08:18:04.820Z,99494.41
2023-11-15T08:21:14.306Z,99490.16
2023-11-15T08:24:23.856Z,99511.03
2023-11-15T08:27:26.682Z,99505.94
2023-11-15T08:30:30.950Z,99507.88
2023-11-15T08:33:35.342Z,99500.84
2023-11-15T08:36:39.540Z,99491.44
2023-11-15T08:39:43.628Z,99505.41
2023-11-15T08:42:47.597Z,99507.25
2023-11-15T08:45:50.332Z,99513.53
2023-11-15T08:48:53.724Z,99515.16
2023-11-15T08:51:57.764Z,99518.06
2023-11-15T08:55:01.008Z,99532.06
2023-11-15T08:58:03.794Z,99540.94
2023-11-15T09:01:10.434Z,99530.47
2023-11-15T09:04:17.731Z,99541.66
2023-11-15T09:07:21.544Z,99545.09
2023-11-15T09:10:24.487Z,99546.22
2023-11-15T09:13:29.542Z,99555.72
2023-11-15T09:16:32.286Z,99565.50
2023-11-15T09:19:35.539Z,99574.22
2023-11-15T09:22:39.217Z,99566.53
2023-11-15T09:25:44.752Z,99575.41
2023-11-15T09:28:48.335Z,99571.09
2023-11-15T09:31:53.350Z,99575.50
2023-11-15T09:34:58.013Z,99571.16
2023-11-15T09:38:01.306Z,99592.13
2023-11-15T09:41:07.908Z,99605.88
2023-11-15T09:44:18.359Z,99588.53
2023-11-15T09:47:21.651Z,99605.13
2023-11-15T09:50:28.035Z,99587.53
2023-11-15T09:53:34.693Z,99599.94
2023-11-15T09:56:38.256Z,99607.66
2023-11-15T09:59:48.094Z,99600.69
2023-11-15T10:02:55.858Z,99622.53
2023-11-15T10:06:00.991Z,99634.78
2023-11-15T10:09:04.378Z,99626.03
2023-11-15T10:12:07.924Z,99645.13
2023-11-15T10:15:12.475Z,99637.44
2023-11-15T10:18:29.244Z,99631.31
2023-11-15T10:21:34.921Z,99625.13
2023-11-15T10:24:39.195Z,99618.03
2023-11-15T10:27:42.619Z,99619.06
2023-11-15T10:30:45.628Z,99610.38
2023-11-15T10:33:54.845Z,99604.34
2023-11-15T10:37:09.004Z,99608.03
2023-11-15T10:40:12.987Z,99612.44
2023-11-15T10:43:20.281Z,99623.88
2023-11-15T10:46:30.789Z,99621.28
2023-11-15T10:49:41.186Z,99629.38
2023-11-15T10:52:44.655Z,99627.47
2023-11-15T10:55:49.090Z,99634.44
2023-11-15T10:58:54.070Z,99638.75
2023-11-15T11:02:01.882Z,99652.94
2023-11-15T11:05:11.754Z,99648.66
2023-11-15T11:08:56.068Z,99638.53
2023-11-15T11:12:07.081Z,99640.44
2023-11-15T11:15:25.887Z,99643.00
2023-11-15T11:18:32.092Z,99644.84
2023-11-15T11:22:04.643Z,99649.28
2023-11-15T11:25:12.037Z,99640.81
2023-11-15T11:28:21.954Z,99623.28
2023-11-15T11:31:27.674Z,99647.78
2023-11-15T11:34:30.657Z,99655.69
2023-11-15T11:37:57.325Z,99660.09
2023-11-15T11:41:03.938Z,99656.63
2023-11-15T11:44:08.043Z,99654.84
2023-11-15T11:47:12.782Z,99650.53
2023-11-15T11:50:25.235Z,99644.41
2023-11-15T11:53:28.518Z,99658.47
2023-11-15T11:56:31.970Z,99670.72
2023-11-15T11:59:34.942Z,99675.88
2023-11-15T12:02:38.777Z,99675.81
2023-11-15T12:05:46.483Z,99677.53
2023-11-15T12:08:52.734Z,99684.47
2023-11-15T12:11:58.675Z,99680.97
2023-11-15T12:15:01.884Z,99691.72
2023-11-15T12:18:05.132Z,99693.47
2023-11-15T12:21:08.406Z,99693.34
2023-11-15T12:24:12.737Z,99695.00
2023-11-15T12:27:16.052Z,99694.97
2023-11-15T12:30:19.235Z,99703.56
2023-11-15T12:33:22.627Z,99699.97
2023-11-15T12:36:25.709Z,99711.34
2023-11-15T12:39:39.153Z,99711.72
2023-11-15T12:42:44.280Z,99729.28
2023-11-15T12:45:47.857Z,99723.91
2023-11-15T12:48:50.716Z,99726.41
2023-11-15T12:51:53.778Z,99736.81
2023-11-15T12:54:57.364Z,99732.34
2023-11-15T12:58:00.292Z,99747.13
2023-11-15T13:01:12.778Z,99746.25
2023-11-15T13:04:16.732Z,99739.16
2023-11-15T13:07:20.560Z,99738.28
2023-11-15T13:10:23.625Z,99743.50
2023-11-15T13:13:26.566Z,99740.78
2023-11-15T13:16:29.465Z,99752.31
2023-11-15T13:19:33.660Z,99752.41
2023-11-15T13:22:36.562Z,99749.87
2023-11-15T13:25:39.576Z,99752.41
2023-11-15T13:28:45.261Z,99754.31
2023-11-15T13:31:48.380Z,99768.31
2023-11-15T13:34:52.263Z,99775.28
2023-11-15T13:37:57.276Z,99771.81
2023-11-15T13:41:01.201Z,99779.87
2023-11-15T13:44:04.541Z,99779.75
2023-11-15T13:47:08.311Z,99783.28
2023-11-15T13:50:12.284Z,99785.03
2023-11-15T13:53:15.193Z,99793.75
2023-11-15T13:56:22.060Z,99798.13
2023-11-15T13:59:25.150Z,99802.47
2023-11-15T14:02:28.295Z,99803.25
2023-11-15T14:05:31.627Z,99795.16
2023-11-15T14:11:51.270Z,99821.25
2023-11-15T14:14:54.261Z,99835.22
2023-11-15T14:17:57.899Z,99842.03
2023-11-15T14:21:00.642Z,99840.34
2023-11-15T14:24:04.098Z,99838.44
2023-11-15T14:27:06.947Z,99829.78
2023-11-15T14:30:11.826Z,99837.47
2023-11-15T14:33:16.448Z,99847.94
2023-11-15T14:36:20.751Z,99851.16
2023-11-15T14:39:26.741Z,99858.13
2023-11-15T14:42:29.948Z,99854.66
2023-11-15T14:45:35.928Z,99856.41
2023-11-15T14:48:39.180Z,99854.72
2023-11-15T14:51:41.911Z,99851.13
2023-11-15T14:54:47.152Z,99863.13
2023-11-15T14:57:52.593Z,99867.53
2023-11-15T15:00:56.384Z,99876.16
2023-11-15T15:03:59.129Z,99880.63
2023-11-15T15:07:03.115Z,99885.78
2023-11-15T15:10:10.219Z,99898.69
2023-11-15T15:13:15.193Z,99894.16
2023-11-15T15:16:22.247Z,99884.53
2023-11-15T15:19:25.678Z,99891.44
2023-11-15T15:22:28.504Z,99881.78
2023-11-15T15:25:32.145Z,99885.28
2023-11-15T15:28:35.057Z,99893.03
2023-11-15T15:31:38.830Z,99890.53
2023-11-15T15:34:41.894Z,99897.62
2023-11-15T15:37:47.367Z,99908.16
2023-11-15T15:40:50.241Z,99905.44
2023-11-15T15:43:56.451Z,99906.81
2023-11-15T15:47:00.104Z,99915.53
2023-11-15T15:50:03.356Z,99920.78
2023-11-15T15:53:06.103Z,99922.66
2023-11-15T15:56:09.350Z,99946.09
2023-11-15T15:59:12.090Z,99936.78
2023-11-15T16:02:17.697Z,99953.22
2023-11-15T16:05:20.757Z,99960.75
2023-11-15T16:08:27.576Z,99965.31
2023-11-15T16:11:30.513Z,99963.66
2023-11-15T16:14:33.777Z,99974.22
2023-11-15T16:17:37.033Z,99964.59
2023-11-15T16:20:40.093Z,99966.41
2023-11-15T16:23:43.026Z,99971.69
2023-11-15T16:26:46.133Z,99984.78
2023-11-15T16:29:49.322Z,100001.16
2023-11-15T16:32:54.190Z,100008.88
2023-11-15T16:35:57.281Z,100008.84
2023-11-15T16:39:01.435Z,100008.22
2023-11-15T16:42:04.866Z,100017.69
2023-11-15T16:45:09.513Z,100018.72
2023-11-15T16:48:13.070Z,100026.47
2023-11-15T16:51:16.195Z,100023.78
2023-11-15T16:54:20.155Z,100029.78
2023-11-15T16:57:23.085Z,100033.44
2023-11-15T17:00:26.234Z,100031.56
2023-11-15T17:03:29.279Z,100041.03
2023-11-15T17:06:34.243Z,100041.00
2023-11-15T17:09:37.531Z,100049.69
2023-11-15T17:12:40.773Z,100058.41
2023-11-15T17:15:43.814Z,100065.31
2023-11-15T17:18:47.092Z,100062.78
2023-11-15T17:21:50.227Z,100071.56
2023-11-15T17:24:54.108Z,100068.06
2023-11-15T17:28:01.256Z,100069.62
2023-11-15T17:31:09.273Z,100068.69
2023-11-15T17:34:12.868Z,100062.12
2023-11-15T17:37:19.440Z,100074.16
2023-11-15T17:40:22.525Z,100078.19
2023-11-15T17:43:25.452Z,100084.31
2023-11-15T17:46:28.516Z,100078.34
2023-11-15T17:49:31.504Z,100081.47
2023-11-15T17:52:34.756Z,100074.31
2023-11-15T17:55:38.835Z,100084.87
2023-11-15T17:58:42.444Z,100089.88
2023-11-15T18:01:45.540Z,100102.41
2023-11-15T18:04:49.011Z,100097.87
2023-11-15T18:07:52.282Z,100086.84
2023-11-15T18:10:56.936Z,100090.12
2023-11-15T18:14:01.284Z,100099.44
2023-11-15T18:17:04.952Z,100097.44
2023-11-15T18:20:11.888Z,100097.44
2023-11-15T18:23:15.345Z,100117.63
2023-11-15T18:26:26.136Z,100118.97
2023-11-15T18:29:32.980Z,100126.91
2023-11-15T18:32:47.537Z,100115.53
2023-11-15T18:35:51.899Z,100121.00
2023-11-15T18:38:54.631Z,100117.94
2023-11-15T18:41:59.425Z,100131.75
2023-11-15T18:45:05.382Z,100132.75
2023-11-15T18:48:10.765Z,100134.06
2023-11-15T18:51:13.763Z,100130.59
2023-11-15T18:54:17.588Z,100140.00
2023-11-15T18:57:23.225Z,100144.34
2023-11-15T19:00:27.457Z,100153.06
2023-11-15T19:03:35.001Z,100155.50
2023-11-15T19:06:39.215Z,100151.84
2023-11-15T19:09:44.645Z,100162.91
2023-11-15T19:12:50.184Z,100163.28
2023-11-15T19:15:55.151Z,100165.09
2023-11-15T19:18:59.051Z,100171.31
2023-11-15T19:22:01.805Z,100169.91
2023-11-15T19:25:16.252Z,100162.94
2023-11-15T19:28:19.015Z,100176.13
2023-11-15T19:31:22.828Z,100177.22
2023-11-15T19:34:29.341Z,100181.62
2023-11-15T19:37:33.588Z,100182.28
2023-11-15T19:40:37.191Z,100188.44
2023-11-15T19:43:42.797Z,100188.28
2023-11-15T19:46:45.766Z,100186.50
2023-11-15T19:49:49.649Z,100183.50
2023-11-15T19:52:52.505Z,100201.50
2023-11-15T19:55:55.693Z,100192.50
2023-11-15T19:58:58.671Z,100192.59
2023-11-15T20:02:02.495Z,100197.56
2023-11-15T20:05:05.868Z,100195.53
2023-11-15T20:08:08.662Z,100187.50
2023-11-15T20:11:16.402Z,100190.84
2023-11-15T20:14:19.351Z,100183.03
2023-11-15T20:17:22.312Z,100187.50
2023-11-15T20:20:25.428Z,100185.06
2023-11-15T20:23:28.670Z,100177.06
2023-11-15T20:26:31.579Z,100182.06
2023-11-15T20:29:38.811Z,100182.66
2023-11-15T20:32:42.037Z,100177.53
2023-11-15T20:35:48.265Z,100187.72
2023-11-15T20:38:51.306Z,100189.91
2023-11-15T20:41:58.451Z,100185.59
2023-11-15T20:45:04.776Z,100200.66
2023-11-15T20:48:20.570Z,100196.28
2023-11-15T20:51:26.664Z,100200.84
2023-11-15T20:54:33.930Z,100212.56
2023-11-15T20:57:38.006Z,100219.13
2023-11-15T21:00:41.020Z,100217.53
2023-11-15T21:03:44.130Z,100211.81
2023-11-15T21:06:48.049Z,100207.28
2023-11-15T21:09:53.921Z,100206.25
2023-11-15T21:12:57.160Z,100215.03
2023-11-15T21:16:04.387Z,100219.22
2023-11-15T21:19:09.935Z,100205.44
2023-11-15T21:22:14.439Z,100214.16
2023-11-15T21:25:17.799Z,100212.28
2023-11-15T21:28:21.192Z,100216.44
2023-11-15T21:31:24.180Z,100217.22
2023-11-15T21:34:28.507Z,100224.03
2023-11-15T21:37:31.728Z,100215.28
2023-11-15T21:40:35.002Z,100233.25
2023-11-15T21:43:37.774Z,100230.72
2023-11-15T21:46:40.578Z,100230.75
2023-11-15T21:49:43.775Z,100235.81
2023-11-15T21:52:47.866Z,100234.78
2023-11-15T21:55:51.088Z,100239.16
2023-11-15T21:58:54.288Z,100239.22
2023-11-15T22:01:57.140Z,100240.66
2023-11-15T22:05:00.348Z,100248.00
2023-11-15T22:08:03.631Z,100252.53
2023-11-15T22:11:07.104Z,100256.22
2023-11-15T22:14:09.688Z,100256.66
2023-11-15T22:17:15.794Z,100260.41
2023-11-15T22:20:20.241Z,100246.16
2023-11-15T22:23:23.537Z,100257.94
2023-11-15T22:26:26.233Z,100258.44
2023-11-15T22:29:30.760Z,100261.13
2023-11-15T22:32:34.387Z,100261.75
2023-11-15T22:35:37.848Z,100258.34
2023-11-15T22:38:41.033Z,100260.03
2023-11-15T22:41:44.230Z,100270.69
2023-11-15T22:44:46.787Z,100269.50
2023-11-15T22:47:49.868Z,100272.47
2023-11-15T22:50:52.481Z,100282.88
2023-11-15T22:53:56.932Z,100282.91
2023-11-15T22:56:59.520Z,100287.22
2023-11-15T23:00:05.962Z,100288.50
2023-11-15T23:03:12.268Z,100297.19
2023-11-15T23:06:15.734Z,100296.47
2023-11-15T23:09:19.468Z,100297.13
2023-11-15T23:12:24.168Z,100293.38
2023-11-15T23:15:31.541Z,100294.78
2023-11-15T23:18:35.082Z,100299.31
2023-11-15T23:21:41.380Z,100296.53
2023-11-15T23:24:49.705Z,100311.47
2023-11-15T23:27:52.649Z,100314.53
2023-11-15T23:30:57.034Z,100325.00
2023-11-15T23:33:59.601Z,100322.78
2023-11-15T23:37:03.569Z,100335.53
2023-11-15T23:40:13.279Z,100342.31
2023-11-15T23:43:18.065Z,100331.66
2023-11-15T23:46:22.039Z,100326.31
2023-11-15T23:49:25.331Z,100338.97
2023-11-15T23:52:28.422Z,100319.09
2023-11-15T23:55:31.663Z,100325.75
2023-11-15T23:58:34.730Z,100332.13
